createdAt,value
2023-05-24T00:01:57.811Z,71.61
2023-05-24T00:04:24.471Z,71.72
2023-05-24T00:06:51.832Z,71.76
2023-05-24T00:09:18.342Z,71.74
2023-05-24T00:11:44.853Z,71.68
2023-05-24T00:14:11.473Z,71.62
2023-05-24T00:16:38.122Z,71.71
2023-05-24T00:19:04.688Z,71.61
2023-05-24T00:21:31.261Z,71.51
2023-05-24T00:23:57.986Z,71.54
2023-05-24T00:26:24.488Z,71.48
2023-05-24T00:28:50.940Z,71.49
2023-05-24T00:31:17.491Z,71.59
2023-05-24T00:33:44.071Z,71.49
2023-05-24T00:36:11.139Z,71.41
2023-05-24T00:38:37.627Z,71.26
2023-05-24T00:41:04.174Z,71.24
2023-05-24T00:43:30.665Z,71.33
2023-05-24T00:46:21.458Z,71.44
2023-05-24T00:48:49.695Z,71.49
2023-05-24T00:51:16.574Z,71.61
2023-05-24T00:53:46.327Z,71.72
2023-05-24T00:56:17.205Z,71.80
2023-05-24T00:58:44.348Z,71.80
2023-05-24T01:01:11.527Z,71.83
2023-05-24T01:03:38.477Z,72.02
2023-05-24T01:06:07.353Z,72.11
2023-05-24T01:08:40.050Z,72.11
2023-05-24T01:11:13.028Z,72.32
2023-05-24T01:14:00.992Z,72.34
2023-05-24T01:16:41.669Z,72.22
2023-05-24T01:19:43.877Z,72.12
2023-05-24T01:22:13.082Z,71.87
2023-05-24T01:25:02.481Z,71.78
2023-05-24T01:27:32.141Z,71.82
2023-05-24T01:29:59.930Z,71.91
2023-05-24T01:32:27.167Z,71.86
2023-05-24T01:34:53.753Z,71.83
2023-05-24T01:37:20.270Z,71.92
2023-05-24T01:39:47.509Z,72.04
2023-05-24T01:42:27.186Z,72.06
2023-05-24T01:44:57.818Z,72.22
2023-05-24T01:47:51.634Z,72.28
2023-05-24T01:50:38.507Z,72.38
2023-05-24T01:53:09.122Z,72.60
2023-05-24T01:55:37.501Z,72.55
2023-05-24T01:58:06.312Z,72.60
2023-05-24T02:00:34.489Z,72.67
2023-05-24T02:03:01.550Z,72.73
2023-05-24T02:05:28.265Z,72.78
2023-05-24T02:07:54.859Z,72.95
2023-05-24T02:10:21.374Z,72.95
2023-05-24T02:12:48.025Z,72.79
2023-05-24T02:15:14.605Z,72.94
2023-05-24T02:17:42.266Z,72.93
2023-05-24T02:20:09.492Z,72.88
2023-05-24T02:22:36.010Z,72.94
2023-05-24T02:25:02.546Z,73.04
2023-05-24T02:27:29.100Z,73.24
2023-05-24T02:29:55.558Z,73.30
2023-05-24T02:32:22.043Z,73.29
2023-05-24T02:34:48.622Z,73.41
2023-05-24T02:37:15.229Z,73.37
2023-05-24T02:39:42.146Z,73.35
2023-05-24T02:42:08.924Z,73.36
2023-05-24T02:44:35.499Z,73.31
2023-05-24T02:47:02.040Z,73.37
2023-05-24T02:49:28.586Z,73.45
2023-05-24T02:51:55.072Z,73.37
2023-05-24T02:54:21.556Z,73.46
2023-05-24T02:56:48.066Z,73.53
2023-05-24T02:59:14.598Z,73.56
2023-05-24T03:01:41.175Z,73.46
2023-05-24T03:04:07.837Z,73.57
2023-05-24T03:06:34.475Z,73.72
2023-05-24T03:09:00.998Z,73.70
2023-05-24T03:11:27.508Z,73.89
2023-05-24T03:13:53.999Z,74.01
2023-05-24T03:16:20.571Z,74.18
2023-05-24T03:18:47.110Z,74.47
2023-05-24T03:21:13.705Z,74.61
2023-05-24T03:23:40.276Z,74.78
2023-05-24T03:26:06.784Z,74.98
2023-05-24T03:28:33.401Z,75.07
2023-05-24T03:30:59.984Z,75.19
2023-05-24T03:33:26.515Z,75.17
2023-05-24T03:35:53.157Z,75.27
2023-05-24T03:38:19.643Z,75.36
2023-05-24T03:40:46.145Z,75.31
2023-05-24T03:43:12.647Z,75.37
2023-05-24T03:45:40.180Z,75.27
2023-05-24T03:48:07.031Z,75.36
2023-05-24T03:50:33.598Z,75.45
2023-05-24T03:53:00.187Z,75.41
2023-05-24T03:55:26.782Z,75.49
2023-05-24T03:57:53.324Z,75.55
2023-05-24T04:00:19.921Z,75.73
2023-05-24T04:02:46.529Z,75.86
2023-05-24T04:05:13.905Z,75.82
2023-05-24T04:07:40.919Z,75.89
2023-05-24T04:10:08.212Z,76.08
2023-05-24T04:12:35.256Z,76.07
2023-05-24T04:15:02.151Z,76.02
2023-05-24T04:17:28.860Z,76.04
2023-05-24T04:19:55.785Z,76.07
2023-05-24T04:22:23.776Z,76.11
2023-05-24T04:24:52.454Z,76.10
2023-05-24T04:27:18.953Z,76.15
2023-05-24T04:29:45.608Z,75.99
2023-05-24T04:32:12.187Z,75.97
2023-05-24T04:34:38.659Z,75.78
2023-05-24T04:37:05.238Z,75.91
2023-05-24T04:39:31.759Z,75.79
2023-05-24T04:41:58.294Z,75.82
2023-05-24T04:44:24.756Z,75.78
2023-05-24T04:46:51.306Z,75.86
2023-05-24T04:49:17.909Z,75.96
2023-05-24T04:51:44.456Z,75.98
2023-05-24T04:54:10.979Z,75.99
2023-05-24T04:56:38.509Z,75.92
2023-05-24T04:59:06.195Z,75.96
2023-05-24T05:01:32.856Z,75.90
2023-05-24T05:04:00.013Z,75.89
2023-05-24T05:06:26.670Z,75.88
2023-05-24T05:08:53.195Z,75.99
2023-05-24T05:11:19.768Z,76.02
2023-05-24T05:13:46.265Z,75.97
2023-05-24T05:16:13.007Z,75.36
2023-05-24T05:18:39.507Z,75.01
2023-05-24T05:21:06.034Z,74.85
2023-05-24T05:23:32.615Z,74.62
2023-05-24T05:25:59.078Z,74.30
2023-05-24T05:28:25.571Z,74.47
2023-05-24T05:30:52.189Z,74.27
2023-05-24T05:33:18.765Z,74.08
2023-05-24T05:35:45.350Z,73.42
2023-05-24T05:38:11.814Z,72.63
2023-05-24T05:40:38.364Z,72.52
2023-05-24T05:43:04.985Z,72.53
2023-05-24T05:45:31.612Z,72.48
2023-05-24T05:47:58.109Z,72.73
2023-05-24T05:50:24.746Z,72.56
2023-05-24T05:52:51.248Z,72.23
2023-05-24T05:55:17.759Z,72.19
2023-05-24T05:57:44.288Z,71.96
2023-05-24T06:00:11.261Z,71.88
2023-05-24T06:02:37.801Z,71.69
2023-05-24T06:05:04.611Z,71.11
2023-05-24T06:07:31.212Z,70.62
2023-05-24T06:09:57.775Z,70.28
2023-05-24T06:12:24.282Z,70.01
2023-05-24T06:14:50.787Z,69.85
2023-05-24T06:17:17.277Z,70.00
2023-05-24T06:19:43.782Z,69.65
2023-05-24T06:22:10.346Z,69.18
2023-05-24T06:24:36.813Z,69.11
2023-05-24T06:27:05.307Z,68.95
2023-05-24T06:29:32.228Z,69.27
2023-05-24T06:31:58.915Z,69.05
2023-05-24T06:34:25.587Z,69.02
2023-05-24T06:36:52.204Z,68.94
2023-05-24T06:39:19.011Z,68.97
2023-05-24T06:41:45.644Z,68.51
2023-05-24T06:44:12.167Z,68.15
2023-05-24T06:46:39.430Z,67.80
2023-05-24T06:49:06.049Z,67.92
2023-05-24T06:51:32.574Z,67.44
2023-05-24T06:53:59.136Z,67.40
2023-05-24T06:56:25.821Z,67.16
2023-05-24T06:58:52.588Z,67.18
2023-05-24T07:01:19.248Z,67.17
2023-05-24T07:03:45.797Z,67.32
2023-05-24T07:06:12.328Z,66.83
2023-05-24T07:08:38.870Z,66.41
2023-05-24T07:11:05.565Z,66.23
2023-05-24T07:13:32.107Z,65.94
2023-05-24T07:15:58.608Z,65.72
2023-05-24T07:18:25.256Z,65.98
2023-05-24T07:20:51.938Z,66.02
2023-05-24T07:23:18.526Z,65.63
2023-05-24T07:25:45.044Z,65.80
2023-05-24T07:28:11.594Z,65.50
2023-05-24T07:30:38.113Z,65.17
2023-05-24T07:33:04.683Z,63.93
2023-05-24T07:35:31.304Z,63.53
2023-05-24T07:37:57.879Z,63.33
2023-05-24T07:40:25.720Z,63.76
2023-05-24T07:42:52.413Z,63.80
2023-05-24T07:45:18.925Z,63.72
2023-05-24T07:47:45.486Z,63.48
2023-05-24T07:50:12.137Z,63.90
2023-05-24T07:52:38.668Z,63.20
2023-05-24T07:55:06.151Z,62.80
2023-05-24T07:57:32.674Z,62.95
2023-05-24T07:59:59.179Z,62.71
2023-05-24T08:02:25.773Z,62.21
2023-05-24T08:04:52.290Z,62.35
2023-05-24T08:07:19.032Z,62.14
2023-05-24T08:09:45.605Z,61.97
2023-05-24T08:12:13.018Z,62.27
2023-05-24T08:14:40.849Z,62.11
2023-05-24T08:17:07.408Z,62.44
2023-05-24T08:19:33.895Z,62.24
2023-05-24T08:22:00.556Z,61.76
2023-05-24T08:24:27.030Z,61.20
2023-05-24T08:26:53.584Z,60.82
2023-05-24T08:29:20.149Z,61.39
2023-05-24T08:31:46.694Z,61.10
2023-05-24T08:34:13.951Z,61.14
2023-05-24T08:36:40.677Z,60.94
2023-05-24T08:39:07.210Z,61.24
2023-05-24T08:41:34.028Z,61.31
2023-05-24T08:44:01.025Z,61.09
2023-05-24T08:46:28.857Z,61.02
2023-05-24T08:48:57.716Z,60.74
2023-05-24T08:51:24.540Z,60.08
2023-05-24T08:53:52.069Z,60.06
2023-05-24T08:56:19.276Z,59.56
2023-05-24T08:58:46.037Z,59.10
2023-05-24T09:01:14.421Z,58.93
2023-05-24T09:03:42.971Z,58.54
2023-05-24T09:06:10.902Z,57.91
2023-05-24T09:08:38.172Z,57.84
2023-05-24T09:11:07.272Z,57.88
2023-05-24T09:13:34.034Z,57.13
2023-05-24T09:16:01.691Z,56.15
2023-05-24T09:18:28.571Z,56.47
2023-05-24T09:20:55.605Z,56.21
2023-05-24T09:23:22.881Z,56.00
2023-05-24T09:25:50.067Z,55.90
2023-05-24T09:28:19.935Z,55.78
2023-05-24T09:30:58.226Z,56.09
2023-05-24T09:33:32.117Z,55.73
2023-05-24T09:35:59.952Z,54.49
2023-05-24T09:38:27.330Z,54.99
2023-05-24T09:41:07.896Z,54.66
2023-05-24T09:43:35.528Z,54.70
2023-05-24T09:46:03.811Z,54.35
2023-05-24T09:48:30.955Z,54.11
2023-05-24T09:51:00.528Z,54.17
2023-05-24T09:53:27.167Z,53.69
2023-05-24T09:55:54.423Z,54.27
2023-05-24T09:58:21.004Z,53.51
2023-05-24T10:00:48.045Z,53.79
2023-05-24T10:03:14.838Z,53.12
2023-05-24T10:05:45.548Z,53.72
2023-05-24T10:08:12.622Z,52.68
2023-05-24T10:10:39.170Z,52.63
2023-05-24T10:13:05.814Z,53.13
2023-05-24T10:15:32.411Z,52.65
2023-05-24T10:17:59.164Z,52.50
2023-05-24T10:20:25.898Z,52.15
2023-05-24T10:22:55.369Z,51.79
2023-05-24T10:25:23.999Z,51.63
2023-05-24T10:27:54.248Z,52.27
2023-05-24T10:30:26.570Z,52.67
2023-05-24T10:32:55.669Z,52.11
2023-05-24T10:35:23.151Z,51.82
2023-05-24T10:37:50.256Z,52.15
2023-05-24T10:40:21.285Z,51.49
2023-05-24T10:42:48.478Z,50.70
2023-05-24T10:45:30.268Z,52.02
2023-05-24T10:47:56.868Z,52.24
2023-05-24T10:50:23.669Z,51.37
2023-05-24T10:52:50.256Z,49.92
2023-05-24T10:55:19.475Z,48.99
2023-05-24T10:57:45.975Z,49.14
2023-05-24T11:00:33.919Z,49.15
2023-05-24T11:03:06.413Z,48.50
2023-05-24T11:05:35.408Z,47.97
2023-05-24T11:08:02.413Z,47.92
2023-05-24T11:10:32.554Z,45.93
2023-05-24T11:13:02.954Z,43.81
2023-05-24T11:15:29.980Z,44.16
2023-05-24T11:18:08.955Z,43.21
2023-05-24T11:20:35.970Z,42.76
2023-05-24T11:23:04.082Z,43.57
2023-05-24T11:25:30.641Z,44.01
2023-05-24T11:27:58.809Z,43.83
2023-05-24T11:30:25.381Z,44.36
2023-05-24T11:32:51.976Z,45.01
2023-05-24T11:35:21.282Z,44.50
2023-05-24T11:37:47.840Z,44.65
2023-05-24T11:40:14.613Z,45.25
2023-05-24T11:42:41.731Z,46.50
2023-05-24T11:45:09.071Z,46.05
2023-05-24T11:47:38.369Z,45.48
2023-05-24T11:50:05.589Z,44.39
2023-05-24T11:52:32.304Z,44.62
2023-05-24T11:54:58.844Z,44.66
2023-05-24T11:57:38.167Z,45.15
2023-05-24T12:00:05.398Z,45.52
2023-05-24T12:02:32.064Z,45.33
2023-05-24T12:05:07.285Z,44.98
2023-05-24T12:07:34.331Z,45.05
2023-05-24T12:10:00.847Z,45.59
2023-05-24T12:12:33.933Z,45.75
2023-05-24T12:15:08.088Z,45.36
2023-05-24T12:17:34.661Z,46.06
2023-05-24T12:20:03.177Z,46.94
2023-05-24T12:22:29.757Z,46.19
2023-05-24T12:24:57.045Z,44.31
2023-05-24T12:27:27.931Z,44.01
2023-05-24T12:29:54.422Z,44.04
2023-05-24T12:32:21.342Z,44.81
2023-05-24T12:34:49.801Z,44.89
2023-05-24T12:37:17.398Z,45.30
2023-05-24T12:39:44.740Z,45.50
2023-05-24T12:42:12.206Z,44.77
2023-05-24T12:44:39.297Z,43.30
2023-05-24T12:47:07.728Z,43.82
2023-05-24T12:49:34.607Z,44.54
2023-05-24T12:52:01.259Z,44.38
2023-05-24T12:54:28.833Z,44.16
2023-05-24T12:56:57.236Z,44.45
2023-05-24T12:59:24.311Z,44.74
2023-05-24T13:01:50.925Z,44.51
2023-05-24T13:04:18.555Z,43.77
2023-05-24T13:06:45.207Z,43.81
2023-05-24T13:09:11.751Z,44.55
2023-05-24T13:11:38.340Z,43.66
2023-05-24T13:14:04.858Z,43.65
2023-05-24T13:16:31.448Z,43.71
2023-05-24T13:18:58.016Z,44.26
2023-05-24T13:21:24.598Z,43.67
2023-05-24T13:23:51.115Z,43.17
2023-05-24T13:26:17.762Z,43.54
2023-05-24T13:28:59.033Z,43.59
2023-05-24T13:31:31.307Z,43.50
2023-05-24T13:33:57.952Z,42.82
2023-05-24T13:36:24.494Z,42.55
2023-05-24T13:39:02.297Z,42.66
2023-05-24T13:41:37.584Z,43.02
2023-05-24T13:44:04.383Z,43.11
2023-05-24T13:46:31.147Z,42.92
2023-05-24T13:48:57.680Z,42.86
2023-05-24T13:51:24.512Z,43.60
2023-05-24T13:53:51.027Z,43.29
2023-05-24T13:56:17.574Z,43.53
2023-05-24T13:58:44.476Z,44.23
2023-05-24T14:01:11.142Z,44.12
2023-05-24T14:03:37.914Z,44.05
2023-05-24T14:06:04.547Z,44.59
2023-05-24T14:08:31.081Z,44.44
2023-05-24T14:10:57.588Z,43.70
2023-05-24T14:14:07.476Z,43.74
2023-05-24T14:16:11.053Z,43.72
2023-05-24T14:18:37.635Z,43.63
2023-05-24T14:21:04.156Z,44.77
2023-05-24T14:23:31.130Z,44.90
2023-05-24T14:25:58.197Z,44.26
2023-05-24T14:28:24.972Z,45.68
2023-05-24T14:30:51.506Z,45.76
2023-05-24T14:33:18.029Z,46.28
2023-05-24T14:35:44.750Z,45.28
2023-05-24T14:38:11.820Z,44.59
2023-05-24T14:40:39.022Z,44.60
2023-05-24T14:43:07.227Z,44.95
2023-05-24T14:45:33.962Z,44.83
2023-05-24T14:48:00.540Z,44.98
2023-05-24T14:50:27.124Z,45.05
2023-05-24T14:52:55.325Z,45.20
2023-05-24T14:55:22.478Z,45.21
2023-05-24T14:57:49.182Z,45.46
2023-05-24T15:00:16.217Z,45.47
2023-05-24T15:02:42.903Z,45.39
2023-05-24T15:05:09.665Z,45.99
2023-05-24T15:07:36.188Z,45.53
2023-05-24T15:10:03.164Z,45.70
2023-05-24T15:12:29.667Z,45.87
2023-05-24T15:14:56.194Z,46.47
2023-05-24T15:17:22.785Z,46.49
2023-05-24T15:19:49.776Z,45.95
2023-05-24T15:22:16.349Z,45.90
2023-05-24T15:24:42.926Z,45.72
2023-05-24T15:27:09.463Z,45.85
2023-05-24T15:29:36.235Z,45.96
2023-05-24T15:32:02.747Z,46.03
2023-05-24T15:34:29.223Z,45.93
2023-05-24T15:36:55.747Z,45.54
2023-05-24T15:39:22.267Z,45.87
2023-05-24T15:41:48.997Z,46.10
2023-05-24T15:44:15.498Z,46.17
2023-05-24T15:46:42.037Z,45.71
2023-05-24T15:49:08.547Z,45.82
2023-05-24T15:52:02.930Z,45.79
2023-05-24T15:54:22.322Z,46.10
2023-05-24T15:56:48.870Z,46.17
2023-05-24T15:59:15.738Z,46.31
2023-05-24T16:01:42.291Z,46.77
2023-05-24T16:04:09.087Z,46.75
2023-05-24T16:06:35.685Z,46.70
2023-05-24T16:09:02.596Z,46.95
2023-05-24T16:11:29.078Z,47.40
2023-05-24T16:13:55.550Z,47.58
2023-05-24T16:16:22.085Z,47.06
2023-05-24T16:18:48.903Z,47.12
2023-05-24T16:21:15.482Z,46.84
2023-05-24T16:23:42.007Z,46.69
2023-05-24T16:26:08.643Z,46.87
2023-05-24T16:28:35.186Z,47.27
2023-05-24T16:31:01.701Z,47.26
2023-05-24T16:33:28.380Z,47.36
2023-05-24T16:35:54.879Z,47.41
2023-05-24T16:38:25.358Z,47.07
2023-05-24T16:40:52.403Z,47.35
2023-05-24T16:43:19.057Z,47.24
2023-05-24T16:45:45.844Z,47.34
2023-05-24T16:48:13.228Z,47.17
2023-05-24T16:50:40.406Z,46.98
2023-05-24T16:53:07.056Z,47.07
2023-05-24T16:55:33.613Z,47.28
2023-05-24T16:58:00.235Z,47.55
2023-05-24T17:00:26.879Z,47.62
2023-05-24T17:02:53.452Z,47.77
2023-05-24T17:05:20.061Z,48.09
2023-05-24T17:07:46.563Z,47.96
2023-05-24T17:10:13.096Z,48.19
2023-05-24T17:12:39.654Z,48.25
2023-05-24T17:15:06.535Z,48.41
2023-05-24T17:17:33.072Z,48.56
2023-05-24T17:19:59.720Z,48.64
2023-05-24T17:22:26.581Z,49.09
2023-05-24T17:24:53.058Z,49.12
2023-05-24T17:27:22.095Z,49.18
2023-05-24T17:29:49.140Z,49.67
2023-05-24T17:32:15.584Z,50.17
2023-05-24T17:34:42.120Z,50.49
2023-05-24T17:37:08.639Z,51.04
2023-05-24T17:39:35.113Z,51.40
2023-05-24T17:42:01.672Z,51.77
2023-05-24T17:44:28.161Z,52.07
2023-05-24T17:46:54.702Z,52.41
2023-05-24T17:49:21.308Z,52.70
2023-05-24T17:51:47.846Z,53.07
2023-05-24T17:54:14.338Z,53.33
2023-05-24T17:56:40.896Z,53.38
2023-05-24T17:59:07.457Z,53.73
2023-05-24T18:01:34.016Z,53.86
2023-05-24T18:04:00.531Z,54.21
2023-05-24T18:06:27.092Z,54.47
2023-05-24T18:08:53.920Z,54.77
2023-05-24T18:11:20.420Z,55.06
2023-05-24T18:13:46.914Z,55.53
2023-05-24T18:16:13.920Z,55.77
2023-05-24T18:18:40.496Z,55.61
2023-05-24T18:21:08.039Z,55.79
2023-05-24T18:23:34.564Z,56.36
2023-05-24T18:26:03.092Z,56.52
2023-05-24T18:28:29.954Z,56.73
2023-05-24T18:30:56.493Z,57.07
2023-05-24T18:33:23.156Z,57.30
2023-05-24T18:35:49.764Z,57.49
2023-05-24T18:38:16.361Z,57.61
2023-05-24T18:40:43.076Z,57.98
2023-05-24T18:43:09.644Z,57.82
2023-05-24T18:45:36.168Z,58.31
2023-05-24T18:48:02.822Z,58.40
2023-05-24T18:50:29.361Z,58.25
2023-05-24T18:52:55.966Z,58.40
2023-05-24T18:55:22.512Z,58.76
2023-05-24T18:57:49.116Z,58.82
2023-05-24T19:00:16.039Z,59.20
2023-05-24T19:02:42.617Z,59.23
2023-05-24T19:05:09.434Z,59.36
2023-05-24T19:07:36.808Z,59.61
2023-05-24T19:10:03.961Z,59.80
2023-05-24T19:12:30.620Z,59.89
2023-05-24T19:14:57.288Z,60.28
2023-05-24T19:17:25.027Z,60.38
2023-05-24T19:19:52.169Z,60.56
2023-05-24T19:22:18.802Z,60.67
2023-05-24T19:24:45.470Z,60.68
2023-05-24T19:27:11.978Z,60.81
2023-05-24T19:29:38.560Z,60.96
2023-05-24T19:32:05.747Z,61.27
2023-05-24T19:34:32.509Z,61.13
2023-05-24T19:36:59.046Z,61.48
2023-05-24T19:39:25.571Z,61.09
2023-05-24T19:41:52.144Z,61.17
2023-05-24T19:44:19.225Z,61.15
2023-05-24T19:46:45.989Z,61.29
2023-05-24T19:49:12.590Z,61.37
2023-05-24T19:51:39.119Z,61.15
2023-05-24T19:54:05.716Z,61.33
2023-05-24T19:56:32.265Z,61.75
2023-05-24T19:58:58.828Z,61.82
2023-05-24T20:01:25.643Z,61.80
2023-05-24T20:03:52.371Z,62.03
2023-05-24T20:06:19.055Z,62.27
2023-05-24T20:08:45.730Z,62.26
2023-05-24T20:11:12.326Z,62.26
2023-05-24T20:13:41.420Z,62.50
2023-05-24T20:16:07.970Z,62.63
2023-05-24T20:18:34.546Z,62.56
2023-05-24T20:21:02.433Z,62.81
2023-05-24T20:23:29.048Z,62.91
2023-05-24T20:25:55.609Z,62.83
2023-05-24T20:28:30.623Z,63.00
2023-05-24T20:30:58.617Z,63.05
2023-05-24T20:33:25.157Z,63.37
2023-05-24T20:35:51.680Z,63.53
2023-05-24T20:38:18.248Z,63.56
2023-05-24T20:40:44.802Z,63.82
2023-05-24T20:43:11.305Z,63.99
2023-05-24T20:45:37.929Z,64.05
2023-05-24T20:48:04.697Z,63.91
2023-05-24T20:50:31.289Z,64.06
2023-05-24T20:52:57.893Z,64.13
2023-05-24T20:55:26.555Z,64.42
2023-05-24T20:57:53.560Z,64.26
2023-05-24T21:00:20.128Z,64.32
2023-05-24T21:02:46.795Z,64.32
2023-05-24T21:05:13.439Z,64.40
2023-05-24T21:07:40.034Z,64.49
2023-05-24T21:10:07.266Z,64.55
2023-05-24T21:12:33.801Z,64.69
2023-05-24T21:15:00.349Z,64.80
2023-05-24T21:17:26.885Z,64.85
2023-05-24T21:19:53.483Z,64.98
2023-05-24T21:22:20.030Z,65.04
2023-05-24T21:24:46.783Z,65.18
2023-05-24T21:27:13.446Z,65.33
2023-05-24T21:29:39.972Z,65.47
2023-05-24T21:32:06.533Z,65.57
2023-05-24T21:34:33.049Z,65.63
2023-05-24T21:36:59.564Z,65.72
2023-05-24T21:39:26.059Z,65.79
2023-05-24T21:41:52.655Z,65.81
2023-05-24T21:44:19.209Z,65.91
2023-05-24T21:46:45.734Z,65.90
2023-05-24T21:49:12.325Z,65.80
2023-05-24T21:51:38.950Z,65.86
2023-05-24T21:54:05.639Z,66.13
2023-05-24T21:56:32.140Z,66.32
2023-05-24T21:58:58.733Z,66.25
2023-05-24T22:01:25.287Z,66.22
2023-05-24T22:03:51.913Z,66.31
2023-05-24T22:06:18.523Z,66.34
2023-05-24T22:08:45.081Z,66.75
2023-05-24T22:11:11.585Z,66.97
2023-05-24T22:13:38.109Z,67.07
2023-05-24T22:16:04.929Z,67.17
2023-05-24T22:18:31.486Z,67.17
2023-05-24T22:20:58.103Z,67.34
2023-05-24T22:23:25.825Z,67.38
2023-05-24T22:25:52.326Z,67.51
2023-05-24T22:28:18.923Z,67.39
2023-05-24T22:30:47.038Z,67.44
2023-05-24T22:33:13.768Z,67.58
2023-05-24T22:35:40.354Z,67.71
2023-05-24T22:38:07.012Z,67.72
2023-05-24T22:40:33.576Z,68.03
2023-05-24T22:43:00.152Z,68.14
2023-05-24T22:45:26.698Z,68.36
2023-05-24T22:47:53.257Z,68.47
2023-05-24T22:50:19.909Z,68.63
2023-05-24T22:52:46.487Z,68.61
2023-05-24T22:55:12.981Z,68.53
2023-05-24T22:57:39.543Z,68.23
2023-05-24T23:00:06.760Z,68.27
2023-05-24T23:02:33.317Z,68.17
2023-05-24T23:04:59.857Z,68.40
2023-05-24T23:07:26.446Z,68.41
2023-05-24T23:09:52.903Z,68.34
2023-05-24T23:12:19.443Z,68.49
2023-05-24T23:14:45.940Z,68.53
2023-05-24T23:17:12.662Z,68.57
2023-05-24T23:19:40.192Z,68.64
2023-05-24T23:22:06.705Z,68.67
2023-05-24T23:24:33.243Z,68.95
2023-05-24T23:26:59.752Z,69.08
2023-05-24T23:29:26.255Z,69.27
2023-05-24T23:31:52.812Z,69.31
2023-05-24T23:34:19.430Z,69.44
2023-05-24T23:36:45.923Z,69.61
2023-05-24T23:39:12.445Z,69.63
2023-05-24T23:41:38.926Z,69.61
2023-05-24T23:44:05.469Z,69.77
2023-05-24T23:46:32.150Z,69.84
2023-05-24T23:48:58.789Z,69.93
2023-05-24T23:51:25.282Z,70.08
2023-05-24T23:53:51.832Z,70.23
2023-05-24T23:56:18.381Z,70.42
2023-05-24T23:58:44.893Z,70.57
